createdAt,value
2023-04-08T00:01:21.079Z,28.90
2023-04-08T00:03:48.416Z,28.73
2023-04-08T00:06:16.248Z,28.37
2023-04-08T00:08:43.589Z,26.07
2023-04-08T00:11:10.939Z,24.77
2023-04-08T00:13:38.257Z,25.07
2023-04-08T00:16:05.856Z,23.30
2023-04-08T00:18:33.086Z,22.10
2023-04-08T00:21:00.546Z,20.53
2023-04-08T00:23:27.813Z,18.23
2023-04-08T00:25:55.324Z,16.87
2023-04-08T00:28:22.754Z,12.90
2023-04-08T00:30:50.047Z,10.37
2023-04-08T00:33:17.396Z,8.53
2023-04-08T00:35:44.731Z,8.93
2023-04-08T00:38:12.230Z,8.50
2023-04-08T00:40:39.620Z,7.80
2023-04-08T00:43:07.001Z,7.73
2023-04-08T00:45:34.524Z,8.03
2023-04-08T00:48:03.592Z,8.07
2023-04-08T00:50:31.328Z,7.00
2023-04-08T00:52:58.623Z,6.80
2023-04-08T00:55:25.939Z,6.50
2023-04-08T00:57:53.905Z,5.83
2023-04-08T01:00:21.588Z,5.97
2023-04-08T01:02:54.894Z,5.27
2023-04-08T01:05:48.441Z,5.70
2023-04-08T01:08:18.032Z,5.07
2023-04-08T01:10:50.970Z,5.07
2023-04-08T01:13:19.970Z,4.70
2023-04-08T01:15:50.625Z,5.17
2023-04-08T01:18:19.006Z,5.50
2023-04-08T01:20:47.602Z,5.47
2023-04-08T01:23:28.125Z,4.60
2023-04-08T01:25:56.856Z,5.00
2023-04-08T01:28:27.224Z,3.87
2023-04-08T01:30:57.078Z,3.53
2023-04-08T01:33:28.832Z,3.60
2023-04-08T01:35:57.966Z,4.00
2023-04-08T01:38:26.642Z,3.60
2023-04-08T01:40:55.903Z,3.20
2023-04-08T01:43:25.443Z,3.90
2023-04-08T01:45:58.496Z,3.50
2023-04-08T01:48:27.005Z,3.13
2023-04-08T01:50:56.175Z,2.93
2023-04-08T01:53:23.857Z,3.40
2023-04-08T01:56:01.656Z,4.10
2023-04-08T01:58:37.264Z,4.57
2023-04-08T02:01:10.487Z,6.17
2023-04-08T02:03:41.649Z,4.80
2023-04-08T02:06:09.094Z,5.37
2023-04-08T02:08:36.593Z,5.20
2023-04-08T02:11:04.345Z,4.60
2023-04-08T02:13:32.027Z,3.30
2023-04-08T02:16:21.463Z,3.17
2023-04-08T02:18:59.134Z,3.10
2023-04-08T02:21:37.024Z,3.20
2023-04-08T02:24:08.224Z,3.60
2023-04-08T02:26:37.129Z,3.67
2023-04-08T02:29:05.780Z,4.23
2023-04-08T02:31:34.856Z,4.00
2023-04-08T02:34:02.562Z,3.87
2023-04-08T02:36:33.089Z,4.13
2023-04-08T02:39:04.050Z,3.60
2023-04-08T02:41:31.722Z,3.40
2023-04-08T02:43:59.513Z,4.30
2023-04-08T02:46:26.741Z,3.20
2023-04-08T02:48:54.200Z,3.00
2023-04-08T02:51:21.754Z,2.97
2023-04-08T02:53:49.373Z,3.07
2023-04-08T02:56:16.841Z,3.10
2023-04-08T02:58:44.077Z,2.53
2023-04-08T03:01:11.631Z,2.93
2023-04-08T03:03:39.651Z,2.70
2023-04-08T03:06:07.060Z,2.70
2023-04-08T03:08:34.418Z,2.80
2023-04-08T03:11:01.681Z,2.63
2023-04-08T03:13:29.914Z,2.90
2023-04-08T03:15:57.512Z,2.97
2023-04-08T03:18:25.420Z,2.83
2023-04-08T03:20:52.677Z,3.10
2023-04-08T03:23:19.936Z,3.43
2023-04-08T03:25:47.300Z,3.17
2023-04-08T03:28:14.735Z,3.50
2023-04-08T03:30:42.591Z,3.67
2023-04-08T03:33:09.981Z,4.10
2023-04-08T03:35:38.742Z,4.47
2023-04-08T03:38:06.193Z,4.70
2023-04-08T03:40:33.501Z,4.13
2023-04-08T03:43:01.348Z,4.07
2023-04-08T03:45:28.694Z,3.80
2023-04-08T03:47:55.985Z,4.67
2023-04-08T03:50:23.539Z,4.40
2023-04-08T03:52:50.907Z,4.00
2023-04-08T03:55:18.306Z,5.40
2023-04-08T03:57:46.081Z,4.73
2023-04-08T04:00:14.167Z,5.40
2023-04-08T04:02:41.544Z,5.57
2023-04-08T04:05:09.029Z,5.83
2023-04-08T04:07:36.318Z,5.77
2023-04-08T04:10:03.872Z,5.07
2023-04-08T04:12:31.329Z,4.80
2023-04-08T04:14:58.573Z,4.87
2023-04-08T04:17:25.864Z,5.13
2023-04-08T04:19:53.203Z,4.10
2023-04-08T04:22:20.583Z,3.90
2023-04-08T04:24:50.879Z,3.60
2023-04-08T04:27:18.127Z,3.63
2023-04-08T04:29:45.429Z,4.20
2023-04-08T04:32:12.932Z,3.67
2023-04-08T04:34:40.318Z,3.60
2023-04-08T04:37:07.796Z,3.80
2023-04-08T04:39:35.243Z,4.87
2023-04-08T04:42:03.515Z,4.77
2023-04-08T04:44:31.127Z,4.13
2023-04-08T04:46:58.496Z,5.20
2023-04-08T04:49:27.139Z,4.60
2023-04-08T04:51:54.793Z,4.67
2023-04-08T04:54:22.026Z,4.83
2023-04-08T04:56:49.288Z,4.33
2023-04-08T04:59:16.543Z,3.87
2023-04-08T05:01:44.019Z,3.70
2023-04-08T05:04:11.773Z,3.73
2023-04-08T05:06:39.141Z,3.50
2023-04-08T05:09:06.395Z,3.50
2023-04-08T05:11:33.691Z,3.73
2023-04-08T05:14:01.109Z,3.77
2023-04-08T05:16:28.605Z,3.17
2023-04-08T05:18:56.117Z,3.30
2023-04-08T05:21:24.134Z,3.57
2023-04-08T05:23:53.149Z,3.87
2023-04-08T05:26:21.759Z,4.43
2023-04-08T05:28:49.966Z,4.30
2023-04-08T05:31:18.200Z,4.90
2023-04-08T05:33:45.898Z,4.37
2023-04-08T05:36:14.306Z,3.90
2023-04-08T05:38:44.377Z,4.83
2023-04-08T05:41:11.676Z,4.43
2023-04-08T05:43:38.922Z,4.23
2023-04-08T05:46:08.188Z,4.70
2023-04-08T05:48:36.237Z,3.90
2023-04-08T05:51:03.593Z,4.17
2023-04-08T05:53:30.982Z,4.50
2023-04-08T05:55:58.240Z,4.80
2023-04-08T05:58:25.890Z,4.63
2023-04-08T06:00:53.221Z,3.97
2023-04-08T06:03:21.121Z,4.53
2023-04-08T06:05:48.610Z,4.40
2023-04-08T06:08:16.405Z,4.67
2023-04-08T06:10:51.063Z,4.70
2023-04-08T06:13:20.180Z,4.60
2023-04-08T06:15:49.017Z,4.80
2023-04-08T06:18:17.269Z,4.57
2023-04-08T06:20:44.614Z,4.20
2023-04-08T06:23:12.459Z,5.10
2023-04-08T06:25:39.911Z,4.87
2023-04-08T06:28:07.326Z,4.80
2023-04-08T06:30:34.689Z,4.93
2023-04-08T06:33:02.053Z,5.30
2023-04-08T06:35:29.624Z,7.10
2023-04-08T06:37:56.992Z,7.30
2023-04-08T06:40:24.257Z,5.67
2023-04-08T06:42:51.706Z,5.03
2023-04-08T06:45:29.063Z,5.57
2023-04-08T06:47:56.824Z,5.43
2023-04-08T06:50:24.072Z,4.80
2023-04-08T06:52:51.319Z,6.00
2023-04-08T06:55:18.581Z,5.90
2023-04-08T06:57:45.830Z,5.03
2023-04-08T07:00:13.771Z,5.60
2023-04-08T07:02:41.325Z,4.73
2023-04-08T07:05:08.804Z,4.57
2023-04-08T07:07:36.221Z,5.00
2023-04-08T07:10:03.798Z,4.80
2023-04-08T07:12:31.169Z,4.60
2023-04-08T07:14:58.401Z,5.27
2023-04-08T07:17:25.699Z,4.90
2023-04-08T07:19:53.026Z,4.40
2023-04-08T07:22:20.345Z,5.20
2023-04-08T07:24:49.783Z,4.50
2023-04-08T07:27:17.397Z,4.23
2023-04-08T07:29:44.648Z,4.30
2023-04-08T07:32:11.917Z,4.90
2023-04-08T07:34:39.195Z,3.87
2023-04-08T07:37:06.519Z,4.37
2023-04-08T07:39:33.772Z,4.00
2023-04-08T07:42:01.394Z,4.63
2023-04-08T07:44:28.707Z,4.33
2023-04-08T07:46:56.287Z,4.37
2023-04-08T07:49:23.529Z,4.50
2023-04-08T07:51:51.529Z,4.47
2023-04-08T07:54:19.514Z,4.87
2023-04-08T07:56:46.773Z,4.50
2023-04-08T07:59:14.083Z,4.90
2023-04-08T08:01:41.419Z,4.90
2023-04-08T08:04:09.055Z,4.87
2023-04-08T08:06:36.405Z,4.97
2023-04-08T08:09:03.744Z,5.67
2023-04-08T08:11:31.214Z,5.53
2023-04-08T08:13:58.528Z,5.90
2023-04-08T08:16:29.221Z,5.80
2023-04-08T08:18:56.677Z,6.07
2023-04-08T08:21:24.333Z,6.37
2023-04-08T08:23:53.010Z,6.23
2023-04-08T08:26:21.197Z,7.07
2023-04-08T08:28:48.514Z,8.13
2023-04-08T08:31:16.005Z,8.33
2023-04-08T08:33:43.435Z,7.60
2023-04-08T08:36:10.744Z,7.80
2023-04-08T08:38:38.094Z,7.73
2023-04-08T08:41:05.548Z,7.20
2023-04-08T08:43:33.699Z,7.87
2023-04-08T08:46:01.490Z,7.77
2023-04-08T08:48:28.763Z,8.53
2023-04-08T08:50:57.924Z,7.83
2023-04-08T08:53:31.027Z,7.33
2023-04-08T08:56:16.285Z,7.27
2023-04-08T08:58:44.896Z,6.30
2023-04-08T09:01:32.508Z,7.00
2023-04-08T09:04:18.570Z,6.70
2023-04-08T09:06:47.518Z,6.40
2023-04-08T09:09:14.887Z,6.83
2023-04-08T09:11:44.378Z,8.10
2023-04-08T09:14:38.107Z,7.23
2023-04-08T09:17:05.362Z,8.40
2023-04-08T09:19:33.047Z,6.97
2023-04-08T09:22:08.046Z,7.07
2023-04-08T09:27:07.593Z,7.80
2023-04-08T09:29:38.161Z,7.53
2023-04-08T09:32:06.770Z,8.00
2023-04-08T09:34:34.481Z,7.67
2023-04-08T09:37:02.277Z,7.30
2023-04-08T09:39:30.887Z,7.70
2023-04-08T09:42:01.319Z,7.73
2023-04-08T09:44:30.606Z,7.67
2023-04-08T09:47:11.246Z,7.77
2023-04-08T09:49:46.341Z,8.03
2023-04-08T09:52:24.413Z,8.23
2023-04-08T09:55:13.037Z,8.33
2023-04-08T09:57:55.706Z,8.00
2023-04-08T10:00:29.090Z,7.87
2023-04-08T10:03:25.504Z,8.67
2023-04-08T10:05:54.352Z,8.80
2023-04-08T10:08:23.028Z,8.43
2023-04-08T10:10:51.241Z,9.17
2023-04-08T10:13:18.945Z,9.67
2023-04-08T10:15:47.686Z,13.47
2023-04-08T10:18:18.284Z,11.00
2023-04-08T10:20:47.561Z,9.33
2023-04-08T10:23:16.697Z,8.70
2023-04-08T10:25:48.545Z,9.53
2023-04-08T10:28:18.543Z,9.50
2023-04-08T10:30:49.753Z,10.53
2023-04-08T10:33:22.227Z,11.43
2023-04-08T10:35:54.319Z,10.27
2023-04-08T10:38:22.396Z,13.50
2023-04-08T10:40:49.828Z,12.60
2023-04-08T10:43:17.792Z,18.17
2023-04-08T10:45:51.314Z,24.20
2023-04-08T10:48:28.957Z,14.97
2023-04-08T10:51:01.328Z,26.10
2023-04-08T10:53:29.609Z,22.90
2023-04-08T10:56:13.254Z,17.93
2023-04-08T10:58:55.237Z,12.03
2023-04-08T11:01:23.346Z,15.43
2023-04-08T11:03:51.612Z,16.40
2023-04-08T11:06:19.616Z,13.67
2023-04-08T11:08:47.341Z,13.53
2023-04-08T11:11:15.432Z,12.97
2023-04-08T11:13:52.831Z,13.17
2023-04-08T11:16:24.605Z,14.13
2023-04-08T11:18:52.120Z,12.80
2023-04-08T11:21:19.768Z,12.90
2023-04-08T11:23:51.173Z,13.60
2023-04-08T11:26:20.155Z,13.33
2023-04-08T11:28:51.914Z,14.93
2023-04-08T11:31:23.548Z,13.97
2023-04-08T11:33:54.360Z,13.30
2023-04-08T11:36:22.087Z,13.53
2023-04-08T11:38:49.661Z,14.87
2023-04-08T11:41:17.764Z,13.33
2023-04-08T11:43:52.491Z,13.10
2023-04-08T11:46:20.540Z,12.80
2023-04-08T11:49:01.950Z,12.50
2023-04-08T11:51:29.653Z,11.77
2023-04-08T11:53:57.463Z,12.83
2023-04-08T11:56:25.625Z,30.83
2023-04-08T11:58:53.401Z,17.97
2023-04-08T12:01:21.557Z,12.57
2023-04-08T12:04:00.235Z,13.30
2023-04-08T12:06:28.726Z,10.47
2023-04-08T12:08:56.807Z,10.50
2023-04-08T12:11:24.307Z,10.03
2023-04-08T12:13:53.119Z,9.80
2023-04-08T12:16:21.185Z,9.77
2023-04-08T12:18:48.778Z,10.07
2023-04-08T12:21:16.218Z,10.87
2023-04-08T12:23:43.848Z,8.53
2023-04-08T12:26:11.623Z,9.67
2023-04-08T12:28:39.095Z,8.57
2023-04-08T12:31:06.621Z,8.33
2023-04-08T12:33:33.933Z,8.47
2023-04-08T12:36:01.578Z,7.93
2023-04-08T12:38:29.088Z,9.47
2023-04-08T12:40:57.188Z,8.33
2023-04-08T12:43:24.502Z,8.23
2023-04-08T12:45:52.013Z,8.43
2023-04-08T12:48:19.309Z,7.73
2023-04-08T12:50:46.653Z,8.10
2023-04-08T12:53:14.024Z,8.73
2023-04-08T12:55:43.227Z,8.87
2023-04-08T12:58:11.734Z,8.60
2023-04-08T13:00:40.173Z,8.20
2023-04-08T13:03:07.657Z,7.97
2023-04-08T13:05:43.076Z,8.13
2023-04-08T13:08:14.399Z,8.33
2023-04-08T13:10:42.634Z,8.40
2023-04-08T13:13:09.990Z,7.87
2023-04-08T13:15:38.045Z,7.83
2023-04-08T13:18:05.627Z,7.47
2023-04-08T13:20:33.567Z,8.07
2023-04-08T13:23:01.400Z,7.30
2023-04-08T13:25:28.822Z,7.70
2023-04-08T13:27:56.386Z,8.20
2023-04-08T13:30:23.688Z,8.17
2023-04-08T13:32:51.175Z,8.20
2023-04-08T13:35:18.568Z,8.47
2023-04-08T13:37:46.139Z,8.53
2023-04-08T13:40:13.483Z,7.47
2023-04-08T13:42:41.573Z,7.63
2023-04-08T13:45:09.200Z,8.10
2023-04-08T13:47:38.077Z,7.10
2023-04-08T13:50:07.144Z,7.90
2023-04-08T13:52:34.623Z,7.23
2023-04-08T13:55:01.918Z,5.80
2023-04-08T13:57:29.172Z,6.07
2023-04-08T13:59:56.449Z,6.10
2023-04-08T14:02:24.506Z,6.10
2023-04-08T14:04:52.511Z,5.93
2023-04-08T14:07:19.907Z,6.60
2023-04-08T14:09:47.169Z,6.20
2023-04-08T14:12:14.506Z,4.97
2023-04-08T14:14:41.904Z,5.53
2023-04-08T14:17:09.318Z,4.43
2023-04-08T14:19:36.681Z,4.77
2023-04-08T14:22:03.950Z,4.50
2023-04-08T14:24:31.277Z,4.57
2023-04-08T14:26:59.007Z,4.17
2023-04-08T14:29:27.677Z,4.30
2023-04-08T14:31:55.033Z,4.20
2023-04-08T14:34:22.309Z,4.10
2023-04-08T14:36:49.549Z,3.83
2023-04-08T14:39:16.919Z,3.27
2023-04-08T14:41:44.243Z,3.93
2023-04-08T14:44:11.561Z,3.87
2023-04-08T14:46:39.822Z,3.53
2023-04-08T14:49:07.233Z,3.90
2023-04-08T14:51:34.569Z,3.43
2023-04-08T14:54:02.276Z,4.50
2023-04-08T14:56:29.634Z,3.50
2023-04-08T14:58:57.032Z,3.97
2023-04-08T15:01:24.371Z,4.47
2023-04-08T15:03:51.803Z,3.63
2023-04-08T15:06:21.685Z,4.77
2023-04-08T15:08:49.359Z,4.83
2023-04-08T15:11:16.790Z,3.77
2023-04-08T15:13:44.075Z,4.17
2023-04-08T15:16:11.458Z,3.83
2023-04-08T15:18:38.974Z,4.50
2023-04-08T15:21:06.319Z,4.30
2023-04-08T15:23:33.626Z,4.53
2023-04-08T15:26:01.198Z,4.30
2023-04-08T15:28:28.488Z,15.20
2023-04-08T15:30:56.112Z,4.80
2023-04-08T15:33:23.816Z,4.73
2023-04-08T15:35:51.313Z,10.20
2023-04-08T15:38:18.767Z,4.27
2023-04-08T15:40:48.104Z,4.73
2023-04-08T15:43:15.915Z,4.87
2023-04-08T15:45:44.391Z,4.77
2023-04-08T15:48:16.857Z,4.70
2023-04-08T15:50:44.891Z,4.40
2023-04-08T15:53:12.395Z,4.87
2023-04-08T15:55:41.076Z,4.87
2023-04-08T15:58:08.486Z,4.77
2023-04-08T16:00:36.087Z,4.40
2023-04-08T16:03:05.533Z,4.80
2023-04-08T16:05:35.874Z,5.47
2023-04-08T16:08:04.524Z,4.73
2023-04-08T16:10:31.918Z,4.67
2023-04-08T16:12:59.231Z,5.27
2023-04-08T16:15:26.792Z,5.83
2023-04-08T16:17:54.412Z,5.70
2023-04-08T16:20:21.721Z,6.30
2023-04-08T16:22:50.229Z,6.20
2023-04-08T16:25:17.750Z,6.20
2023-04-08T16:27:45.107Z,6.20
2023-04-08T16:30:12.524Z,6.10
2023-04-08T16:32:40.274Z,6.87
2023-04-08T16:35:08.139Z,7.27
2023-04-08T16:37:35.592Z,8.00
2023-04-08T16:40:03.831Z,7.43
2023-04-08T16:42:32.939Z,7.13
2023-04-08T16:45:01.141Z,7.03
2023-04-08T16:47:28.931Z,7.07
2023-04-08T16:49:56.290Z,7.80
2023-04-08T16:52:23.589Z,6.60
2023-04-08T16:54:52.282Z,7.50
2023-04-08T16:57:19.719Z,7.00
2023-04-08T16:59:47.238Z,7.53
2023-04-08T17:02:14.817Z,6.90
2023-04-08T17:04:42.092Z,8.57
2023-04-08T17:07:09.497Z,8.40
2023-04-08T17:09:37.612Z,7.87
2023-04-08T17:12:04.952Z,7.77
2023-04-08T17:14:33.663Z,7.70
2023-04-08T17:17:01.388Z,6.80
2023-04-08T17:19:28.704Z,7.27
2023-04-08T17:21:56.117Z,6.90
2023-04-08T17:24:23.701Z,7.73
2023-04-08T17:26:51.151Z,7.10
2023-04-08T17:29:18.433Z,7.50
2023-04-08T17:31:46.026Z,7.80
2023-04-08T17:34:13.419Z,8.37
2023-04-08T17:36:40.859Z,11.03
2023-04-08T17:39:08.247Z,9.03
2023-04-08T17:41:40.417Z,8.93
2023-04-08T17:44:08.695Z,9.10
2023-04-08T17:46:36.188Z,9.20
2023-04-08T17:49:03.450Z,10.20
2023-04-08T17:51:31.994Z,10.10
2023-04-08T17:53:59.339Z,10.87
2023-04-08T17:56:27.989Z,12.60
2023-04-08T17:58:55.477Z,12.10
2023-04-08T18:01:23.075Z,12.10
2023-04-08T18:03:51.738Z,12.17
2023-04-08T18:06:19.457Z,13.03
2023-04-08T18:08:46.703Z,13.57
2023-04-08T18:11:14.328Z,14.93
2023-04-08T18:13:41.701Z,15.93
2023-04-08T18:16:20.401Z,14.73
2023-04-08T18:18:48.629Z,13.40
2023-04-08T18:21:19.314Z,13.20
2023-04-08T18:23:49.642Z,12.73
2023-04-08T18:26:17.558Z,12.80
2023-04-08T18:28:44.850Z,14.20
2023-04-08T18:31:12.305Z,12.77
2023-04-08T18:33:39.673Z,12.63
2023-04-08T18:36:08.531Z,11.63
2023-04-08T18:38:36.885Z,13.07
2023-04-08T18:41:04.752Z,11.77
2023-04-08T18:43:32.717Z,12.90
2023-04-08T18:46:00.473Z,12.13
2023-04-08T18:48:27.782Z,12.40
2023-04-08T18:50:55.269Z,12.63
2023-04-08T18:53:23.192Z,12.43
2023-04-08T18:55:51.339Z,12.00
2023-04-08T18:58:18.617Z,11.07
2023-04-08T19:00:46.068Z,11.37
2023-04-08T19:03:13.601Z,11.53
2023-04-08T19:05:41.009Z,12.67
2023-04-08T19:08:08.442Z,12.93
2023-04-08T19:10:35.822Z,13.37
2023-04-08T19:13:03.144Z,12.53
2023-04-08T19:15:30.973Z,12.03
2023-04-08T19:17:59.148Z,13.07
2023-04-08T19:20:27.367Z,12.63
2023-04-08T19:22:55.928Z,11.90
2023-04-08T19:25:23.214Z,11.87
2023-04-08T19:27:50.626Z,12.60
2023-04-08T19:30:17.975Z,13.43
2023-04-08T19:32:45.943Z,14.20
2023-04-08T19:35:13.606Z,14.43
2023-04-08T19:37:41.085Z,15.00
2023-04-08T19:40:09.716Z,15.27
2023-04-08T19:42:36.990Z,13.77
2023-04-08T19:45:05.286Z,12.97
2023-04-08T19:47:32.978Z,12.63
2023-04-08T19:50:00.393Z,12.53
2023-04-08T19:52:27.810Z,12.07
2023-04-08T19:54:55.253Z,12.40
2023-04-08T19:57:22.657Z,11.30
2023-04-08T19:59:53.237Z,11.97
2023-04-08T20:02:21.067Z,11.70
2023-04-08T20:04:48.676Z,11.50
2023-04-08T20:07:16.154Z,10.83
2023-04-08T20:09:43.522Z,11.63
2023-04-08T20:12:10.840Z,11.60
2023-04-08T20:14:42.017Z,12.10
2023-04-08T20:17:09.366Z,11.57
2023-04-08T20:19:36.665Z,12.27
2023-04-08T20:22:04.054Z,11.63
2023-04-08T20:24:31.767Z,12.70
2023-04-08T20:26:59.973Z,12.77
2023-04-08T20:29:27.192Z,12.87
2023-04-08T20:31:54.696Z,13.33
2023-04-08T20:34:21.921Z,12.33
2023-04-08T20:36:49.205Z,12.20
2023-04-08T20:39:16.477Z,12.93
2023-04-08T20:41:43.875Z,13.50
2023-04-08T20:44:11.203Z,13.73
2023-04-08T20:46:38.516Z,12.27
2023-04-08T20:49:06.131Z,12.63
2023-04-08T20:51:33.757Z,13.03
2023-04-08T20:54:01.245Z,13.17
2023-04-08T20:56:28.575Z,12.23
2023-04-08T20:58:58.208Z,12.37
2023-04-08T21:01:27.088Z,11.80
2023-04-08T21:03:54.753Z,12.63
2023-04-08T21:06:22.268Z,13.00
2023-04-08T21:08:50.462Z,13.60
2023-04-08T21:11:18.058Z,12.50
2023-04-08T21:13:48.086Z,12.40
2023-04-08T21:16:16.376Z,13.73
2023-04-08T21:18:43.716Z,12.97
2023-04-08T21:21:13.987Z,12.87
2023-04-08T21:23:41.263Z,12.73
2023-04-08T21:26:15.154Z,11.73
2023-04-08T21:28:43.893Z,12.37
2023-04-08T21:31:12.388Z,12.50
2023-04-08T21:33:40.125Z,13.00
2023-04-08T21:36:07.812Z,12.87
2023-04-08T21:38:35.777Z,13.60
2023-04-08T21:41:03.165Z,12.97
2023-04-08T21:43:30.493Z,12.63
2023-04-08T21:45:57.750Z,13.00
2023-04-08T21:48:25.177Z,13.47
2023-04-08T21:50:53.241Z,13.17
2023-04-08T21:53:22.145Z,13.10
2023-04-08T21:55:49.481Z,13.23
2023-04-08T21:58:17.343Z,13.53
2023-04-08T22:00:44.850Z,13.33
2023-04-08T22:03:12.435Z,13.60
2023-04-08T22:05:40.195Z,13.77
2023-04-08T22:08:07.499Z,12.80
2023-04-08T22:10:34.820Z,13.30
2023-04-08T22:13:02.148Z,13.03
2023-04-08T22:15:29.611Z,13.70
2023-04-08T22:17:57.299Z,13.70
2023-04-08T22:20:24.714Z,12.87
2023-04-08T22:22:52.161Z,13.27
2023-04-08T22:25:19.620Z,13.13
2023-04-08T22:27:46.875Z,13.03
2023-04-08T22:30:14.271Z,13.47
2023-04-08T22:32:41.627Z,13.07
2023-04-08T22:35:09.385Z,14.13
2023-04-08T22:37:36.652Z,14.73
2023-04-08T22:40:04.432Z,14.20
2023-04-08T22:42:31.710Z,14.73
2023-04-08T22:44:59.645Z,13.80
2023-04-08T22:47:26.967Z,13.80
2023-04-08T22:49:54.240Z,13.73
2023-04-08T22:52:21.637Z,14.63
2023-04-08T22:54:48.922Z,14.23
2023-04-08T22:57:16.401Z,13.23
2023-04-08T22:59:43.659Z,13.90
2023-04-08T23:02:11.234Z,14.63
2023-04-08T23:04:38.544Z,13.67
2023-04-08T23:07:06.134Z,13.80
2023-04-08T23:09:33.654Z,12.93
2023-04-08T23:12:01.587Z,13.93
2023-04-08T23:14:28.838Z,13.57
2023-04-08T23:16:56.064Z,13.13
2023-04-08T23:19:23.483Z,13.83
2023-04-08T23:21:50.708Z,13.90
2023-04-08T23:24:17.945Z,13.63
2023-04-08T23:26:45.460Z,13.40
2023-04-08T23:29:12.900Z,13.27
2023-04-08T23:31:40.496Z,14.43
2023-04-08T23:34:07.875Z,13.87
2023-04-08T23:36:35.148Z,14.23
2023-04-08T23:39:02.549Z,13.10
2023-04-08T23:41:29.780Z,13.87
2023-04-08T23:43:57.114Z,13.83
2023-04-08T23:46:24.353Z,15.37
2023-04-08T23:48:52.018Z,15.20
2023-04-08T23:51:19.494Z,15.53
2023-04-08T23:53:46.958Z,15.33
2023-04-08T23:56:14.221Z,14.47
2023-04-08T23:58:41.636Z,14.67
